createdAt,value
2018-05-17T00:02:19.018Z,79.60
2018-05-17T00:04:47.332Z,80.00
2018-05-17T00:07:17.402Z,81.20
2018-05-17T00:09:45.708Z,80.30
2018-05-17T00:12:14.055Z,80.30
2018-05-17T00:14:42.403Z,80.50
2018-05-17T00:17:11.496Z,81.50
2018-05-17T00:19:39.809Z,81.50
2018-05-17T00:22:08.125Z,81.40
2018-05-17T00:24:36.464Z,81.50
2018-05-17T00:27:04.786Z,81.50
2018-05-17T00:29:33.135Z,81.80
2018-05-17T00:32:01.454Z,82.10
2018-05-17T00:34:29.792Z,82.10
2018-05-17T00:36:58.097Z,82.30
2018-05-17T00:39:26.433Z,82.50
2018-05-17T00:41:55.515Z,83.30
2018-05-17T00:44:23.869Z,83.20
2018-05-17T00:46:52.170Z,83.90
2018-05-17T00:49:20.514Z,83.90
2018-05-17T00:51:48.845Z,84.50
2018-05-17T00:54:17.166Z,84.40
2018-05-17T00:56:45.494Z,84.50
2018-05-17T00:59:13.815Z,84.10
2018-05-17T01:01:42.140Z,84.30
2018-05-17T01:04:10.459Z,84.60
2018-05-17T01:06:40.609Z,85.20
2018-05-17T01:09:09.077Z,85.20
2018-05-17T01:11:39.230Z,85.90
2018-05-17T01:14:07.563Z,85.20
2018-05-17T01:16:36.666Z,85.80
2018-05-17T01:19:04.973Z,85.70
2018-05-17T01:21:34.159Z,85.40
2018-05-17T01:24:03.235Z,85.60
2018-05-17T01:26:33.343Z,86.00
2018-05-17T01:29:01.761Z,85.90
2018-05-17T01:31:30.824Z,86.20
2018-05-17T01:33:59.159Z,86.20
2018-05-17T01:36:27.472Z,86.50
2018-05-17T01:38:55.791Z,86.60
2018-05-17T01:41:24.102Z,86.30
2018-05-17T01:43:52.441Z,86.90
2018-05-17T01:46:20.746Z,87.10
2018-05-17T01:48:49.856Z,88.00
2018-05-17T01:51:19.081Z,88.20
2018-05-17T01:53:47.411Z,88.20
2018-05-17T01:56:15.744Z,88.50
2018-05-17T01:58:44.067Z,89.00
2018-05-17T02:01:12.381Z,89.00
2018-05-17T02:03:41.466Z,89.40
2018-05-17T02:06:09.805Z,89.50
2018-05-17T02:08:38.132Z,89.60
2018-05-17T02:11:06.444Z,90.00
2018-05-17T02:13:34.757Z,90.10
2018-05-17T02:16:03.088Z,90.00
2018-05-17T02:18:32.162Z,90.30
2018-05-17T02:21:00.519Z,90.30
2018-05-17T02:23:28.820Z,90.50
2018-05-17T02:25:57.151Z,90.60
2018-05-17T02:28:25.469Z,90.90
2018-05-17T02:30:53.789Z,91.30
2018-05-17T02:33:22.881Z,91.20
2018-05-17T02:35:52.000Z,91.40
2018-05-17T02:38:20.323Z,91.40
2018-05-17T02:40:48.651Z,91.50
2018-05-17T02:43:17.857Z,91.60
2018-05-17T02:45:46.922Z,91.70
2018-05-17T02:48:15.271Z,91.70
2018-05-17T02:50:43.597Z,91.70
2018-05-17T02:53:12.737Z,92.00
2018-05-17T02:55:41.048Z,92.00
2018-05-17T02:58:09.386Z,92.10
2018-05-17T03:00:37.695Z,92.20
2018-05-17T03:03:06.030Z,92.20
2018-05-17T03:05:35.136Z,92.40
2018-05-17T03:08:03.513Z,92.10
2018-05-17T03:10:32.582Z,92.30
2018-05-17T03:13:00.886Z,92.30
2018-05-17T03:15:29.207Z,92.30
2018-05-17T03:17:57.519Z,92.30
2018-05-17T03:20:25.859Z,92.40
2018-05-17T03:22:54.192Z,92.40
2018-05-17T03:25:22.560Z,92.40
2018-05-17T03:27:50.880Z,92.60
2018-05-17T03:30:19.961Z,92.30
2018-05-17T03:32:48.272Z,92.60
2018-05-17T03:35:18.365Z,92.80
2018-05-17T03:37:46.691Z,92.80
2018-05-17T03:40:15.774Z,92.90
2018-05-17T03:42:44.843Z,92.90
2018-05-17T03:45:14.207Z,92.90
2018-05-17T03:47:42.538Z,93.00
2018-05-17T03:50:10.864Z,93.00
2018-05-17T03:52:39.990Z,93.10
2018-05-17T03:55:08.308Z,93.10
2018-05-17T03:57:37.395Z,93.20
2018-05-17T04:00:05.703Z,93.20
2018-05-17T04:02:46.725Z,93.50
2018-05-17T04:05:26.852Z,93.40
2018-05-17T04:07:55.213Z,93.40
2018-05-17T04:10:23.534Z,93.30
2018-05-17T04:12:51.838Z,93.40
2018-05-17T04:15:21.169Z,93.40
2018-05-17T04:17:49.507Z,93.30
2018-05-17T04:20:17.820Z,93.20
2018-05-17T04:22:46.915Z,93.20
2018-05-17T04:25:15.983Z,93.10
2018-05-17T04:27:44.330Z,93.00
2018-05-17T04:30:12.666Z,92.90
2018-05-17T04:32:41.761Z,92.60
2018-05-17T04:35:11.612Z,92.50
2018-05-17T04:37:39.912Z,92.50
2018-05-17T04:40:08.257Z,92.40
2018-05-17T04:42:37.609Z,91.80
2018-05-17T04:45:05.956Z,91.80
2018-05-17T04:47:36.374Z,91.40
2018-05-17T04:50:05.586Z,91.30
2018-05-17T04:52:36.295Z,90.90
2018-05-17T04:55:05.605Z,90.40
2018-05-17T04:57:34.894Z,90.40
2018-05-17T05:00:03.395Z,90.80
2018-05-17T05:02:31.744Z,90.00
2018-05-17T05:05:00.060Z,89.40
2018-05-17T05:07:29.602Z,89.50
2018-05-17T05:09:58.121Z,90.00
2018-05-17T05:12:26.850Z,88.80
2018-05-17T05:14:55.298Z,88.50
2018-05-17T05:17:23.641Z,88.10
2018-05-17T05:19:51.943Z,88.90
2018-05-17T05:22:20.270Z,89.00
2018-05-17T05:24:48.600Z,89.20
2018-05-17T05:27:16.943Z,89.80
2018-05-17T05:29:45.312Z,89.30
2018-05-17T05:32:14.245Z,88.50
2018-05-17T05:34:42.584Z,88.40
2018-05-17T05:37:10.898Z,86.80
2018-05-17T05:39:40.009Z,84.30
2018-05-17T05:42:08.327Z,84.30
2018-05-17T05:44:36.665Z,84.00
2018-05-17T05:47:05.016Z,82.50
2018-05-17T05:49:34.135Z,81.20
2018-05-17T05:52:02.469Z,81.10
2018-05-17T05:54:30.802Z,80.30
2018-05-17T05:56:59.117Z,79.00
2018-05-17T05:59:27.472Z,79.20
2018-05-17T06:01:55.794Z,77.40
2018-05-17T06:04:24.106Z,76.70
2018-05-17T06:06:53.229Z,75.40
2018-05-17T06:09:22.321Z,74.80
2018-05-17T06:11:51.434Z,73.90
2018-05-17T06:14:19.751Z,73.90
2018-05-17T06:16:48.078Z,74.20
2018-05-17T06:19:17.184Z,73.10
2018-05-17T06:21:46.282Z,72.60
2018-05-17T06:24:15.362Z,72.10
2018-05-17T06:26:43.701Z,72.00
2018-05-17T06:29:12.022Z,70.70
2018-05-17T06:31:40.371Z,69.50
2018-05-17T06:34:08.684Z,67.90
2018-05-17T06:36:37.772Z,68.10
2018-05-17T06:39:06.187Z,68.10
2018-05-17T06:41:35.262Z,67.30
2018-05-17T06:44:03.594Z,67.30
2018-05-17T06:46:31.912Z,67.40
2018-05-17T06:49:00.241Z,66.70
2018-05-17T06:51:28.552Z,67.00
2018-05-17T06:53:56.876Z,64.30
2018-05-17T06:56:25.184Z,62.90
2018-05-17T06:58:53.551Z,61.40
2018-05-17T07:01:21.852Z,59.60
2018-05-17T07:03:50.155Z,58.50
2018-05-17T07:06:18.481Z,56.60
2018-05-17T07:08:46.788Z,56.60
2018-05-17T07:11:15.911Z,54.80
2018-05-17T07:13:44.225Z,54.70
2018-05-17T07:16:12.552Z,53.70
2018-05-17T07:18:41.397Z,53.60
2018-05-17T07:21:09.230Z,53.10
2018-05-17T07:23:37.565Z,52.10
2018-05-17T07:26:05.914Z,51.70
2018-05-17T07:28:34.238Z,51.80
2018-05-17T07:31:02.572Z,52.60
2018-05-17T07:33:30.879Z,53.90
2018-05-17T07:35:59.216Z,53.40
2018-05-17T07:38:27.572Z,53.20
2018-05-17T07:40:56.657Z,53.00
2018-05-17T07:43:24.961Z,53.00
2018-05-17T07:45:54.074Z,53.60
2018-05-17T07:48:22.627Z,53.50
2018-05-17T07:50:50.941Z,52.30
2018-05-17T07:53:19.291Z,51.00
2018-05-17T07:55:48.370Z,50.60
2018-05-17T07:58:16.698Z,50.50
2018-05-17T08:00:45.199Z,48.70
2018-05-17T08:03:13.657Z,49.90
2018-05-17T08:05:42.740Z,49.80
2018-05-17T08:08:12.015Z,49.80
2018-05-17T08:10:40.328Z,49.60
2018-05-17T08:13:09.466Z,48.30
2018-05-17T08:15:37.819Z,48.20
2018-05-17T08:18:06.899Z,48.50
2018-05-17T08:20:35.996Z,49.40
2018-05-17T08:23:04.319Z,49.40
2018-05-17T08:25:32.669Z,48.90
2018-05-17T08:28:01.809Z,48.20
2018-05-17T08:30:30.149Z,48.20
2018-05-17T08:32:59.259Z,47.90
2018-05-17T08:35:28.389Z,47.60
2018-05-17T08:37:56.704Z,48.30
2018-05-17T08:40:25.113Z,47.50
2018-05-17T08:42:54.204Z,44.60
2018-05-17T08:45:23.343Z,44.60
2018-05-17T08:47:51.647Z,44.60
2018-05-17T08:50:19.989Z,45.30
2018-05-17T08:52:48.313Z,44.10
2018-05-17T08:55:16.644Z,43.40
2018-05-17T08:57:45.747Z,44.10
2018-05-17T09:00:14.834Z,42.90
2018-05-17T09:02:43.183Z,42.90
2018-05-17T09:05:11.490Z,42.50
2018-05-17T09:07:40.611Z,41.20
2018-05-17T09:10:08.975Z,40.60
2018-05-17T09:12:38.054Z,39.80
2018-05-17T09:15:06.381Z,39.80
2018-05-17T09:17:35.458Z,39.20
2018-05-17T09:20:04.646Z,39.50
2018-05-17T09:22:32.930Z,39.40
2018-05-17T09:25:01.564Z,38.80
2018-05-17T09:27:29.882Z,38.40
2018-05-17T09:29:58.987Z,39.90
2018-05-17T09:32:27.357Z,39.90
2018-05-17T09:34:55.694Z,38.80
2018-05-17T09:37:24.003Z,39.30
2018-05-17T09:39:52.339Z,38.60
2018-05-17T09:42:21.435Z,38.20
2018-05-17T09:44:49.749Z,38.20
2018-05-17T09:47:18.090Z,38.30
2018-05-17T09:49:46.413Z,37.50
2018-05-17T09:52:14.747Z,36.90
2018-05-17T09:54:43.073Z,37.60
2018-05-17T09:57:12.996Z,38.90
2018-05-17T09:59:41.302Z,38.90
2018-05-17T10:02:09.637Z,39.40
2018-05-17T10:04:37.957Z,38.70
2018-05-17T10:07:06.287Z,37.90
2018-05-17T10:09:35.381Z,38.30
2018-05-17T10:12:04.492Z,38.30
2018-05-17T10:14:33.660Z,36.80
2018-05-17T10:17:01.951Z,36.80
2018-05-17T10:19:30.306Z,37.70
2018-05-17T10:21:58.619Z,38.00
2018-05-17T10:24:27.017Z,38.80
2018-05-17T10:26:56.095Z,38.30
2018-05-17T10:29:24.439Z,38.30
2018-05-17T10:31:52.758Z,39.50
2018-05-17T10:34:22.598Z,38.40
2018-05-17T10:36:51.685Z,38.00
2018-05-17T10:39:20.792Z,39.90
2018-05-17T10:41:49.885Z,39.60
2018-05-17T10:44:18.211Z,39.50
2018-05-17T10:46:46.536Z,39.00
2018-05-17T10:49:14.868Z,38.30
2018-05-17T10:54:16.514Z,37.20
2018-05-17T10:56:45.589Z,36.30
2018-05-17T10:59:14.667Z,36.40
2018-05-17T11:01:43.308Z,36.30
2018-05-17T11:04:11.638Z,36.60
2018-05-17T11:06:39.963Z,36.40
2018-05-17T11:09:09.567Z,36.30
2018-05-17T11:11:38.682Z,37.10
2018-05-17T11:14:08.857Z,36.20
2018-05-17T11:16:37.297Z,36.30
2018-05-17T11:19:07.215Z,37.10
2018-05-17T11:21:35.621Z,36.80
2018-05-17T11:24:04.087Z,35.70
2018-05-17T11:26:32.435Z,36.00
2018-05-17T11:29:01.771Z,35.10
2018-05-17T11:31:30.071Z,35.10
2018-05-17T11:33:58.406Z,34.70
2018-05-17T11:36:27.718Z,33.40
2018-05-17T11:38:56.825Z,33.00
2018-05-17T11:41:25.907Z,35.40
2018-05-17T11:43:55.001Z,36.60
2018-05-17T11:46:24.097Z,36.80
2018-05-17T11:48:52.428Z,36.20
2018-05-17T11:51:20.760Z,36.30
2018-05-17T11:53:49.095Z,35.80
2018-05-17T11:56:17.415Z,35.90
2018-05-17T11:58:46.540Z,37.70
2018-05-17T12:01:15.619Z,37.00
2018-05-17T12:03:43.944Z,37.00
2018-05-17T12:06:13.111Z,37.20
2018-05-17T12:08:42.186Z,37.00
2018-05-17T12:11:10.513Z,37.00
2018-05-17T12:13:38.841Z,37.80
2018-05-17T12:16:07.152Z,38.30
2018-05-17T12:18:36.236Z,38.90
2018-05-17T12:21:04.569Z,38.90
2018-05-17T12:23:32.878Z,39.20
2018-05-17T12:26:01.225Z,38.40
2018-05-17T12:28:29.560Z,39.80
2018-05-17T12:30:57.899Z,39.50
2018-05-17T12:33:26.230Z,39.80
2018-05-17T12:35:54.540Z,39.80
2018-05-17T12:38:22.939Z,39.40
2018-05-17T12:40:51.349Z,39.80
2018-05-17T12:43:19.678Z,38.80
2018-05-17T12:45:48.831Z,38.40
2018-05-17T12:48:17.215Z,38.40
2018-05-17T12:50:45.630Z,37.40
2018-05-17T12:53:13.914Z,38.00
2018-05-17T12:55:42.997Z,37.70
2018-05-17T12:58:12.853Z,37.60
2018-05-17T13:00:41.283Z,37.60
2018-05-17T13:03:09.626Z,36.20
2018-05-17T13:05:37.948Z,36.30
2018-05-17T13:08:06.290Z,35.30
2018-05-17T13:10:34.631Z,35.70
2018-05-17T13:13:02.999Z,36.00
2018-05-17T13:15:31.370Z,35.40
2018-05-17T13:17:59.695Z,35.40
2018-05-17T13:20:28.800Z,34.80
2018-05-17T13:22:57.954Z,35.50
2018-05-17T13:25:26.350Z,35.50
2018-05-17T13:27:54.672Z,34.80
2018-05-17T13:30:23.049Z,35.40
2018-05-17T13:32:51.377Z,36.70
2018-05-17T13:35:19.684Z,37.00
2018-05-17T13:37:48.147Z,37.00
2018-05-17T13:40:16.480Z,37.50
2018-05-17T13:42:44.816Z,36.70
2018-05-17T13:45:13.143Z,36.60
2018-05-17T13:47:41.801Z,35.80
2018-05-17T13:50:10.057Z,36.50
2018-05-17T13:52:38.394Z,36.60
2018-05-17T13:55:06.732Z,35.90
2018-05-17T13:57:36.694Z,37.10
2018-05-17T14:00:05.023Z,37.10
2018-05-17T14:02:33.491Z,37.30
2018-05-17T14:05:01.727Z,37.50
2018-05-17T14:07:30.079Z,38.60
2018-05-17T14:09:58.411Z,39.20
2018-05-17T14:12:27.514Z,40.00
2018-05-17T14:14:55.849Z,40.00
2018-05-17T14:17:24.167Z,38.90
2018-05-17T14:19:53.622Z,39.00
2018-05-17T14:22:22.104Z,39.00
2018-05-17T14:24:51.098Z,39.50
2018-05-17T14:27:19.601Z,39.10
2018-05-17T14:29:49.009Z,37.90
2018-05-17T14:32:17.344Z,37.90
2018-05-17T14:34:46.480Z,37.30
2018-05-17T14:37:14.798Z,37.50
2018-05-17T14:39:43.896Z,36.80
2018-05-17T14:42:12.383Z,36.80
2018-05-17T14:44:41.451Z,37.60
2018-05-17T14:47:09.789Z,37.60
2018-05-17T14:49:38.120Z,37.20
2018-05-17T14:52:06.460Z,36.60
2018-05-17T14:54:34.782Z,36.90
2018-05-17T14:57:03.121Z,36.30
2018-05-17T14:59:31.454Z,37.20
2018-05-17T15:02:00.577Z,39.50
2018-05-17T15:04:28.927Z,39.40
2018-05-17T15:06:58.760Z,38.90
2018-05-17T15:09:28.561Z,38.50
2018-05-17T15:11:56.895Z,39.10
2018-05-17T15:14:25.215Z,39.70
2018-05-17T15:16:53.561Z,40.00
2018-05-17T15:19:21.877Z,41.50
2018-05-17T15:21:50.184Z,41.30
2018-05-17T15:24:19.274Z,43.20
2018-05-17T15:26:47.669Z,43.20
2018-05-17T15:29:16.776Z,44.50
2018-05-17T15:31:45.095Z,44.50
2018-05-17T15:34:13.433Z,45.90
2018-05-17T15:36:42.523Z,47.40
2018-05-17T15:39:10.989Z,47.40
2018-05-17T15:41:39.458Z,48.20
2018-05-17T15:44:08.757Z,49.50
2018-05-17T15:46:37.146Z,48.90
2018-05-17T15:49:05.459Z,49.90
2018-05-17T15:51:34.574Z,50.90
2018-05-17T15:54:02.888Z,50.90
2018-05-17T15:56:31.222Z,51.50
2018-05-17T15:59:00.303Z,52.60
2018-05-17T16:03:57.193Z,53.10
2018-05-17T16:06:26.272Z,53.50
2018-05-17T16:08:56.498Z,54.10
2018-05-17T16:11:24.875Z,53.40
2018-05-17T16:13:53.301Z,53.40
2018-05-17T16:16:21.619Z,53.80
2018-05-17T16:18:49.952Z,54.50
2018-05-17T16:21:19.049Z,56.00
2018-05-17T16:23:48.096Z,56.10
2018-05-17T16:26:16.510Z,56.40
2018-05-17T16:28:46.364Z,57.50
2018-05-17T16:31:14.752Z,57.50
2018-05-17T16:33:43.087Z,58.20
2018-05-17T16:36:12.310Z,58.70
2018-05-17T16:38:41.395Z,59.80
2018-05-17T16:41:10.460Z,61.20
2018-05-17T16:43:38.788Z,60.40
2018-05-17T16:46:07.878Z,61.40
2018-05-17T16:48:37.129Z,61.80
2018-05-17T16:51:06.160Z,62.90
2018-05-17T16:53:34.479Z,62.80
2018-05-17T16:56:02.854Z,62.80
2018-05-17T16:58:31.172Z,63.20
2018-05-17T17:00:59.492Z,64.50
2018-05-17T17:03:27.814Z,64.20
2018-05-17T17:05:56.657Z,64.80
2018-05-17T17:08:25.026Z,65.00
2018-05-17T17:10:53.514Z,65.70
2018-05-17T17:13:21.992Z,66.00
2018-05-17T17:15:50.337Z,66.20
2018-05-17T17:18:20.389Z,66.80
2018-05-17T17:20:50.763Z,67.30
2018-05-17T17:23:21.420Z,67.60
2018-05-17T17:25:55.333Z,68.30
2018-05-17T17:28:30.167Z,68.20
2018-05-17T17:30:59.380Z,69.20
2018-05-17T17:33:28.575Z,69.00
2018-05-17T17:35:56.920Z,69.50
2018-05-17T17:38:26.286Z,69.90
2018-05-17T17:40:54.775Z,69.80
2018-05-17T17:43:23.140Z,70.10
2018-05-17T17:45:51.541Z,70.30
2018-05-17T17:48:22.633Z,70.60
2018-05-17T17:50:56.117Z,70.90
2018-05-17T17:53:25.429Z,71.40
2018-05-17T17:55:54.664Z,71.80
2018-05-17T17:58:23.872Z,71.80
2018-05-17T18:00:52.779Z,71.90
2018-05-17T18:03:21.268Z,72.10
2018-05-17T18:05:50.930Z,72.10
2018-05-17T18:08:20.802Z,72.00
2018-05-17T18:10:50.453Z,72.40
2018-05-17T18:13:19.273Z,72.90
2018-05-17T18:15:50.422Z,72.30
2018-05-17T18:18:19.542Z,72.30
2018-05-17T18:20:49.994Z,72.50
2018-05-17T18:23:19.075Z,72.90
2018-05-17T18:25:48.528Z,73.10
2018-05-17T18:28:17.473Z,73.40
2018-05-17T18:30:47.048Z,73.70
2018-05-17T18:33:15.774Z,74.30
2018-05-17T18:35:44.940Z,74.60
2018-05-17T18:38:16.117Z,74.80
2018-05-17T18:40:46.653Z,75.30
2018-05-17T18:43:16.279Z,75.30
2018-05-17T18:45:47.638Z,75.60
2018-05-17T18:48:16.716Z,75.50
2018-05-17T18:50:47.563Z,76.20
2018-05-17T18:53:17.680Z,75.90
2018-05-17T18:55:47.849Z,76.40
2018-05-17T18:58:16.900Z,76.40
2018-05-17T19:00:46.882Z,77.00
2018-05-17T19:03:18.679Z,77.10
2018-05-17T19:05:47.478Z,77.10
2018-05-17T19:08:16.556Z,77.10
2018-05-17T19:10:46.378Z,77.60
2018-05-17T19:13:16.002Z,78.20
2018-05-17T19:15:45.807Z,77.80
2018-05-17T19:18:15.530Z,77.60
2018-05-17T19:20:44.671Z,78.30
2018-05-17T19:23:13.806Z,78.30
2018-05-17T19:25:42.621Z,78.30
2018-05-17T19:28:12.269Z,78.20
2018-05-17T19:30:40.914Z,78.20
2018-05-17T19:33:09.326Z,78.40
2018-05-17T19:35:37.795Z,78.90
2018-05-17T19:38:06.141Z,79.30
2018-05-17T19:40:34.487Z,79.00
2018-05-17T19:43:03.622Z,79.50
2018-05-17T19:45:32.129Z,79.50
2018-05-17T19:48:01.642Z,79.70
2018-05-17T19:50:31.053Z,80.00
2018-05-17T19:52:59.484Z,80.00
2018-05-17T19:55:28.378Z,79.90
2018-05-17T19:57:57.346Z,79.50
2018-05-17T20:00:26.726Z,79.50
2018-05-17T20:02:55.168Z,79.60
2018-05-17T20:05:24.085Z,80.10
2018-05-17T20:07:52.626Z,80.30
2018-05-17T20:10:21.004Z,80.40
2018-05-17T20:12:50.379Z,80.90
2018-05-17T20:15:19.665Z,80.90
2018-05-17T20:17:48.881Z,81.60
2018-05-17T20:20:17.279Z,81.60
2018-05-17T20:22:45.672Z,81.70
2018-05-17T20:25:16.145Z,82.20
2018-05-17T20:27:46.611Z,82.10
2018-05-17T20:30:15.137Z,82.50
2018-05-17T20:32:43.528Z,82.30
2018-05-17T20:35:12.762Z,82.10
2018-05-17T20:37:41.183Z,82.10
2018-05-17T20:40:09.555Z,82.10
2018-05-17T20:42:38.134Z,82.20
2018-05-17T20:45:06.583Z,82.30
2018-05-17T20:47:34.941Z,82.30
2018-05-17T20:50:04.055Z,82.80
2018-05-17T20:52:32.381Z,82.80
2018-05-17T20:55:00.712Z,83.10
2018-05-17T20:57:29.789Z,83.40
2018-05-17T20:59:58.904Z,83.40
2018-05-17T21:02:27.340Z,83.30
2018-05-17T21:04:55.700Z,83.50
2018-05-17T21:07:24.024Z,83.40
2018-05-17T21:09:52.335Z,83.70
2018-05-17T21:12:21.516Z,84.10
2018-05-17T21:14:51.218Z,84.40
2018-05-17T21:17:19.568Z,84.10
2018-05-17T21:19:47.878Z,84.20
2018-05-17T21:22:17.055Z,85.00
2018-05-17T21:24:45.367Z,84.90
2018-05-17T21:27:13.838Z,85.30
2018-05-17T21:29:42.112Z,85.10
2018-05-17T21:32:11.286Z,85.50
2018-05-17T21:34:39.615Z,85.70
2018-05-17T21:37:07.961Z,85.90
2018-05-17T21:39:36.294Z,86.00
2018-05-17T21:42:05.426Z,86.20
2018-05-17T21:44:33.766Z,86.20
2018-05-17T21:47:02.864Z,87.30
2018-05-17T21:49:31.224Z,86.50
2018-05-17T21:52:00.319Z,86.20
2018-05-17T21:54:28.696Z,86.70
2018-05-17T21:56:57.030Z,87.00
2018-05-17T21:59:26.126Z,87.10
2018-05-17T22:01:55.224Z,87.00
2018-05-17T22:04:24.353Z,87.10
2018-05-17T22:06:52.860Z,87.00
2018-05-17T22:09:21.289Z,87.10
2018-05-17T22:11:50.593Z,87.10
2018-05-17T22:14:19.679Z,87.10
2018-05-17T22:16:49.072Z,87.10
2018-05-17T22:19:17.495Z,87.20
2018-05-17T22:21:48.148Z,87.40
2018-05-17T22:24:16.635Z,87.30
2018-05-17T22:26:45.161Z,87.40
2018-05-17T22:29:13.659Z,87.50
2018-05-17T22:31:41.983Z,87.50
2018-05-17T22:34:10.334Z,87.50
2018-05-17T22:36:39.728Z,87.60
2018-05-17T22:39:08.197Z,87.60
2018-05-17T22:41:36.520Z,87.50
2018-05-17T22:44:04.873Z,87.50
2018-05-17T22:46:33.192Z,87.80
2018-05-17T22:49:01.677Z,88.00
2018-05-17T22:51:30.028Z,88.10
2018-05-17T22:53:59.122Z,88.60
2018-05-17T22:56:40.178Z,88.40
2018-05-17T22:59:09.221Z,88.30
2018-05-17T23:01:38.315Z,88.30
2018-05-17T23:04:06.669Z,88.30
2018-05-17T23:06:34.980Z,88.40
2018-05-17T23:09:03.316Z,89.10
2018-05-17T23:11:31.614Z,88.90
2018-05-17T23:13:59.951Z,89.20
2018-05-17T23:16:28.270Z,89.50
2018-05-17T23:18:56.577Z,89.60
2018-05-17T23:21:25.701Z,89.90
2018-05-17T23:23:54.008Z,89.90
2018-05-17T23:26:22.339Z,90.00
2018-05-17T23:28:50.643Z,90.00
2018-05-17T23:31:18.992Z,90.20
2018-05-17T23:33:48.076Z,90.50
2018-05-17T23:36:16.398Z,90.60
2018-05-17T23:38:44.720Z,90.50
2018-05-17T23:41:24.922Z,90.70
2018-05-17T23:43:53.236Z,90.90
2018-05-17T23:46:21.564Z,91.40
2018-05-17T23:48:50.678Z,91.10
2018-05-17T23:51:19.776Z,91.30
2018-05-17T23:53:48.850Z,91.60
2018-05-17T23:56:17.170Z,91.60
2018-05-17T23:58:45.508Z,91.70
